Polk City, Florida
Current Conditions -  °F | °C
As of 7:53 PM on Wednesday 22 Oct 2014 (Local Time) from KGIF Reporting Station
Clear Clear  
Wind Chill: 75°   Ceiling: Unl
Heat Index: 75°   Visibility: 10mi
Dew Point: 59°   Wind: 8mph
Humidity: 57%   Direction: 30°NNE
Pressure: 29.97"   Gusts: NA
Location:  28.18°N, 81.82°W
Report Text: KGIF 222353Z AUTO 03007KT 10SM CLR 24/15 A2997 RMK AO2 SLP147 T02390150 10306 20239 53013
Loading
Personal Weather Stations






























Interactive Weather Map
Tropical Storm Tracking
New forecast layout! Learn more

10-Day Weather Forecast

Advertisements
Track Severe Weather on mobile